sensor_id;sensor_type;location;lat;lon;timestamp;pressure;altitude;pressure_sealevel;temperature;humidity
18850;BME280;4989;48.772;9.154;2023-08-31T00:00:09;97460.28;;;15.11;100.00
18850;BME280;4989;48.772;9.154;2023-08-31T00:05:13;97465.59;;;14.82;100.00
18850;BME280;4989;48.772;9.154;2023-08-31T00:10:15;97453.78;;;14.66;100.00
18850;BME280;4989;48.772;9.154;2023-08-31T00:15:19;97457.00;;;14.65;100.00
18850;BME280;4989;48.772;9.154;2023-08-31T00:20:21;97467.50;;;14.57;100.00
18850;BME280;4989;48.772;9.154;2023-08-31T00:25:23;97472.09;;;14.51;100.00
18850;BME280;4989;48.772;9.154;2023-08-31T00:30:25;97477.72;;;14.38;100.00
18850;BME280;4989;48.772;9.154;2023-08-31T00:35:33;97480.75;;;14.40;100.00
18850;BME280;4989;48.772;9.154;2023-08-31T00:40:43;97484.84;;;14.36;100.00
18850;BME280;4989;48.772;9.154;2023-08-31T00:45:51;97493.97;;;14.51;100.00
18850;BME280;4989;48.772;9.154;2023-08-31T00:50:55;97493.63;;;14.68;100.00
18850;BME280;4989;48.772;9.154;2023-08-31T00:55:58;97487.81;;;14.75;100.00
18850;BME280;4989;48.772;9.154;2023-08-31T01:01:11;97477.97;;;15.01;100.00
18850;BME280;4989;48.772;9.154;2023-08-31T01:16:53;97481.25;;;14.20;100.00
18850;BME280;4989;48.772;9.154;2023-08-31T01:22:03;97483.84;;;14.06;100.00
18850;BME280;4989;48.772;9.154;2023-08-31T01:27:08;97487.03;;;14.04;100.00
18850;BME280;4989;48.772;9.154;2023-08-31T01:32:11;97488.25;;;13.94;100.00
18850;BME280;4989;48.772;9.154;2023-08-31T01:37:20;97489.47;;;13.84;100.00
18850;BME280;4989;48.772;9.154;2023-08-31T01:42:26;97500.69;;;13.77;100.00
18850;BME280;4989;48.772;9.154;2023-08-31T01:47:29;97507.97;;;13.70;100.00
18850;BME280;4989;48.772;9.154;2023-08-31T01:52:33;97514.66;;;13.69;100.00
18850;BME280;4989;48.772;9.154;2023-08-31T01:57:35;97523.16;;;13.71;100.00
18850;BME280;4989;48.772;9.154;2023-08-31T02:02:52;97513.75;;;13.82;100.00
18850;BME280;4989;48.772;9.154;2023-08-31T02:07:55;97503.88;;;13.93;100.00
18850;BME280;4989;48.772;9.154;2023-08-31T02:12:58;97508.91;;;13.95;100.00
18850;BME280;4989;48.772;9.154;2023-08-31T02:18:01;97506.47;;;13.97;100.00
18850;BME280;4989;48.772;9.154;2023-08-31T02:23:04;97512.56;;;13.92;100.00
18850;BME280;4989;48.772;9.154;2023-08-31T02:28:08;97511.63;;;13.95;100.00
18850;BME280;4989;48.772;9.154;2023-08-31T02:33:12;97508.13;;;13.94;100.00
18850;BME280;4989;48.772;9.154;2023-08-31T02:38:15;97518.28;;;14.03;100.00
18850;BME280;4989;48.772;9.154;2023-08-31T02:43:17;97529.84;;;14.07;100.00
18850;BME280;4989;48.772;9.154;2023-08-31T02:48:20;97535.75;;;13.96;100.00
18850;BME280;4989;48.772;9.154;2023-08-31T02:53:23;97538.34;;;13.91;100.00
18850;BME280;4989;48.772;9.154;2023-08-31T02:58:25;97536.66;;;13.84;100.00
18850;BME280;4989;48.772;9.154;2023-08-31T03:03:28;97530.44;;;13.84;100.00
18850;BME280;4989;48.772;9.154;2023-08-31T03:08:30;97545.91;;;13.78;100.00
18850;BME280;4989;48.772;9.154;2023-08-31T03:13:33;97529.22;;;13.85;100.00
18850;BME280;4989;48.772;9.154;2023-08-31T03:18:37;97547.44;;;13.79;100.00
18850;BME280;4989;48.772;9.154;2023-08-31T03:23:39;97553.34;;;13.68;100.00
18850;BME280;4989;48.772;9.154;2023-08-31T03:28:42;97555.75;;;13.57;100.00
18850;BME280;4989;48.772;9.154;2023-08-31T03:33:44;97549.81;;;13.49;100.00
18850;BME280;4989;48.772;9.154;2023-08-31T03:38:47;97544.81;;;13.47;100.00
18850;BME280;4989;48.772;9.154;2023-08-31T03:43:50;97539.19;;;13.51;100.00
18850;BME280;4989;48.772;9.154;2023-08-31T03:48:57;97551.63;;;13.52;100.00
18850;BME280;4989;48.772;9.154;2023-08-31T03:53:59;97569.81;;;13.46;100.00
18850;BME280;4989;48.772;9.154;2023-08-31T03:59:03;97569.81;;;13.46;100.00
18850;BME280;4989;48.772;9.154;2023-08-31T04:04:08;97573.63;;;13.48;100.00
18850;BME280;4989;48.772;9.154;2023-08-31T04:09:12;97584.69;;;13.45;100.00
18850;BME280;4989;48.772;9.154;2023-08-31T04:14:14;97573.75;;;13.45;100.00
18850;BME280;4989;48.772;9.154;2023-08-31T04:19:17;97572.84;;;13.48;100.00
18850;BME280;4989;48.772;9.154;2023-08-31T04:24:20;97575.41;;;13.42;100.00
18850;BME280;4989;48.772;9.154;2023-08-31T04:29:22;97573.31;;;13.46;100.00
18850;BME280;4989;48.772;9.154;2023-08-31T04:34:25;97595.31;;;13.52;100.00
18850;BME280;4989;48.772;9.154;2023-08-31T04:39:29;97586.81;;;13.50;100.00
18850;BME280;4989;48.772;9.154;2023-08-31T04:44:31;97598.69;;;13.65;100.00
18850;BME280;4989;48.772;9.154;2023-08-31T04:49:34;97604.13;;;13.47;100.00
18850;BME280;4989;48.772;9.154;2023-08-31T04:54:36;97598.63;;;13.38;100.00
18850;BME280;4989;48.772;9.154;2023-08-31T04:59:39;97608.16;;;13.33;100.00
18850;BME280;4989;48.772;9.154;2023-08-31T05:04:41;97613.94;;;13.35;100.00
18850;BME280;4989;48.772;9.154;2023-08-31T05:09:44;97619.25;;;13.39;100.00
18850;BME280;4989;48.772;9.154;2023-08-31T05:14:47;97621.94;;;13.29;100.00
18850;BME280;4989;48.772;9.154;2023-08-31T05:19:49;97626.50;;;13.33;100.00
18850;BME280;4989;48.772;9.154;2023-08-31T05:24:52;97626.81;;;13.35;100.00
18850;BME280;4989;48.772;9.154;2023-08-31T05:29:55;97644.41;;;13.43;100.00
18850;BME280;4989;48.772;9.154;2023-08-31T05:34:57;97651.72;;;13.46;100.00
18850;BME280;4989;48.772;9.154;2023-08-31T05:40:03;97644.75;;;13.45;100.00
18850;BME280;4989;48.772;9.154;2023-08-31T05:45:09;97644.13;;;13.41;100.00
18850;BME280;4989;48.772;9.154;2023-08-31T05:50:11;97649.16;;;13.51;100.00
18850;BME280;4989;48.772;9.154;2023-08-31T05:55:15;97656.03;;;13.56;100.00
18850;BME280;4989;48.772;9.154;2023-08-31T06:00:17;97663.00;;;13.57;100.00
18850;BME280;4989;48.772;9.154;2023-08-31T06:05:20;97661.31;;;13.50;100.00
18850;BME280;4989;48.772;9.154;2023-08-31T06:10:23;97662.38;;;13.53;100.00
18850;BME280;4989;48.772;9.154;2023-08-31T06:15:26;97665.72;;;13.57;100.00
18850;BME280;4989;48.772;9.154;2023-08-31T06:20:28;97673.50;;;13.68;100.00
18850;BME280;4989;48.772;9.154;2023-08-31T06:25:31;97685.81;;;13.72;100.00
18850;BME280;4989;48.772;9.154;2023-08-31T06:30:35;97687.84;;;13.90;100.00
18850;BME280;4989;48.772;9.154;2023-08-31T06:35:38;97689.47;;;14.37;100.00
18850;BME280;4989;48.772;9.154;2023-08-31T06:40:42;97698.47;;;14.75;100.00
18850;BME280;4989;48.772;9.154;2023-08-31T06:45:45;97710.75;;;15.16;100.00
18850;BME280;4989;48.772;9.154;2023-08-31T06:50:48;97708.06;;;15.58;100.00
18850;BME280;4989;48.772;9.154;2023-08-31T06:55:51;97718.03;;;15.89;100.00
18850;BME280;4989;48.772;9.154;2023-08-31T07:00:54;97707.50;;;16.45;100.00
18850;BME280;4989;48.772;9.154;2023-08-31T07:05:57;97714.34;;;15.92;100.00
18850;BME280;4989;48.772;9.154;2023-08-31T07:10:59;97714.66;;;15.85;100.00
18850;BME280;4989;48.772;9.154;2023-08-31T07:16:02;97723.56;;;15.71;100.00
18850;BME280;4989;48.772;9.154;2023-08-31T07:21:05;97739.84;;;15.74;100.00
18850;BME280;4989;48.772;9.154;2023-08-31T07:26:07;97735.72;;;15.79;100.00
18850;BME280;4989;48.772;9.154;2023-08-31T07:31:10;97743.13;;;16.21;100.00
18850;BME280;4989;48.772;9.154;2023-08-31T07:36:13;97749.19;;;16.58;100.00
18850;BME280;4989;48.772;9.154;2023-08-31T07:41:17;97754.94;;;17.23;100.00
18850;BME280;4989;48.772;9.154;2023-08-31T07:46:20;97750.88;;;17.63;100.00
18850;BME280;4989;48.772;9.154;2023-08-31T07:51:23;97746.28;;;18.19;100.00
18850;BME280;4989;48.772;9.154;2023-08-31T07:56:26;97748.03;;;18.98;91.89
18850;BME280;4989;48.772;9.154;2023-08-31T08:01:29;97761.75;;;18.93;75.04
18850;BME280;4989;48.772;9.154;2023-08-31T08:06:32;97761.63;;;19.28;75.18
18850;BME280;4989;48.772;9.154;2023-08-31T08:11:35;97749.94;;;19.39;72.30
18850;BME280;4989;48.772;9.154;2023-08-31T08:16:38;97763.16;;;19.87;71.69
18850;BME280;4989;48.772;9.154;2023-08-31T08:21:40;97766.28;;;19.68;68.88
18850;BME280;4989;48.772;9.154;2023-08-31T08:26:43;97766.88;;;20.16;70.47
18850;BME280;4989;48.772;9.154;2023-08-31T08:31:48;97766.81;;;20.04;80.42
18850;BME280;4989;48.772;9.154;2023-08-31T08:36:51;97779.56;;;21.70;64.06
18850;BME280;4989;48.772;9.154;2023-08-31T08:41:58;97778.03;;;22.03;57.13
18850;BME280;4989;48.772;9.154;2023-08-31T08:47:04;97785.84;;;20.02;64.55
18850;BME280;4989;48.772;9.154;2023-08-31T08:52:09;97787.81;;;19.18;66.56
18850;BME280;4989;48.772;9.154;2023-08-31T08:57:11;97787.63;;;18.81;67.46
18850;BME280;4989;48.772;9.154;2023-08-31T09:02:14;97790.38;;;18.81;77.13
18850;BME280;4989;48.772;9.154;2023-08-31T09:07:17;97797.72;;;20.94;67.54
18850;BME280;4989;48.772;9.154;2023-08-31T09:12:22;97804.81;;;19.89;63.50
18850;BME280;4989;48.772;9.154;2023-08-31T09:17:26;97804.88;;;20.75;64.54
18850;BME280;4989;48.772;9.154;2023-08-31T09:22:29;97805.22;;;20.08;66.85
18850;BME280;4989;48.772;9.154;2023-08-31T09:27:37;97815.25;;;21.57;59.93
18850;BME280;4989;48.772;9.154;2023-08-31T09:32:43;97816.16;;;21.31;72.66
18850;BME280;4989;48.772;9.154;2023-08-31T09:37:57;97810.50;;;21.85;61.10
18850;BME280;4989;48.772;9.154;2023-08-31T09:43:00;97813.03;;;22.00;55.18
18850;BME280;4989;48.772;9.154;2023-08-31T09:48:03;97808.56;;;25.55;54.46
18850;BME280;4989;48.772;9.154;2023-08-31T09:53:10;97804.28;;;23.52;47.25
18850;BME280;4989;48.772;9.154;2023-08-31T09:58:19;97808.25;;;23.21;47.55
18850;BME280;4989;48.772;9.154;2023-08-31T10:03:23;97806.44;;;24.06;54.57
18850;BME280;4989;48.772;9.154;2023-08-31T10:08:30;97815.19;;;23.39;54.98
18850;BME280;4989;48.772;9.154;2023-08-31T10:13:34;97815.66;;;22.96;58.80
18850;BME280;4989;48.772;9.154;2023-08-31T10:18:39;97811.28;;;24.00;56.55
18850;BME280;4989;48.772;9.154;2023-08-31T10:23:47;97823.81;;;23.76;53.94
18850;BME280;4989;48.772;9.154;2023-08-31T10:28:49;97820.06;;;22.01;52.13
18850;BME280;4989;48.772;9.154;2023-08-31T10:34:06;97818.28;;;21.81;59.00
18850;BME280;4989;48.772;9.154;2023-08-31T10:39:19;97817.66;;;23.01;59.63
18850;BME280;4989;48.772;9.154;2023-08-31T10:44:22;97818.97;;;25.54;44.27
18850;BME280;4989;48.772;9.154;2023-08-31T10:49:25;97810.03;;;24.99;53.93
18850;BME280;4989;48.772;9.154;2023-08-31T10:54:33;97815.03;;;25.63;52.13
18850;BME280;4989;48.772;9.154;2023-08-31T10:59:50;97811.22;;;23.75;56.54
18850;BME280;4989;48.772;9.154;2023-08-31T11:15:22;97820.44;;;20.67;65.71
18850;BME280;4989;48.772;9.154;2023-08-31T11:20:25;97817.25;;;20.91;66.15
18850;BME280;4989;48.772;9.154;2023-08-31T11:25:31;97813.28;;;26.83;48.10
18850;BME280;4989;48.772;9.154;2023-08-31T11:30:36;97806.63;;;26.86;46.61
18850;BME280;4989;48.772;9.154;2023-08-31T11:35:43;97800.25;;;24.92;51.78
18850;BME280;4989;48.772;9.154;2023-08-31T11:40:48;97805.84;;;23.83;56.32
18850;BME280;4989;48.772;9.154;2023-08-31T11:45:54;97807.31;;;23.90;50.54
18850;BME280;4989;48.772;9.154;2023-08-31T11:50:57;97803.06;;;23.83;56.73
18850;BME280;4989;48.772;9.154;2023-08-31T11:56:02;97797.38;;;23.64;57.13
18850;BME280;4989;48.772;9.154;2023-08-31T12:01:05;97792.88;;;23.61;56.54
18850;BME280;4989;48.772;9.154;2023-08-31T12:06:08;97789.91;;;23.48;54.88
18850;BME280;4989;48.772;9.154;2023-08-31T12:11:10;97795.50;;;22.95;50.29
18850;BME280;4989;48.772;9.154;2023-08-31T12:16:13;97798.19;;;22.09;56.12
18850;BME280;4989;48.772;9.154;2023-08-31T12:21:19;97799.41;;;22.02;52.28
18850;BME280;4989;48.772;9.154;2023-08-31T12:26:24;97808.25;;;22.01;60.88
18850;BME280;4989;48.772;9.154;2023-08-31T12:31:26;97795.06;;;21.28;52.92
18850;BME280;4989;48.772;9.154;2023-08-31T12:36:29;97791.88;;;21.75;62.45
18850;BME280;4989;48.772;9.154;2023-08-31T12:41:32;97786.28;;;22.59;61.03
18850;BME280;4989;48.772;9.154;2023-08-31T12:46:35;97788.72;;;22.79;59.84
18850;BME280;4989;48.772;9.154;2023-08-31T12:51:38;97783.31;;;22.29;60.40
18850;BME280;4989;48.772;9.154;2023-08-31T12:56:41;97789.59;;;21.62;54.58
18850;BME280;4989;48.772;9.154;2023-08-31T13:01:43;97786.16;;;20.96;55.76
18850;BME280;4989;48.772;9.154;2023-08-31T13:06:46;97798.50;;;21.12;57.12
18850;BME280;4989;48.772;9.154;2023-08-31T13:11:49;97806.47;;;20.87;65.24
18850;BME280;4989;48.772;9.154;2023-08-31T13:16:52;97804.72;;;20.90;56.75
18850;BME280;4989;48.772;9.154;2023-08-31T13:21:54;97795.50;;;22.90;53.64
18850;BME280;4989;48.772;9.154;2023-08-31T13:26:58;97794.13;;;27.61;40.74
18850;BME280;4989;48.772;9.154;2023-08-31T13:32:01;97778.81;;;28.67;41.20
18850;BME280;4989;48.772;9.154;2023-08-31T13:37:04;97772.59;;;29.49;38.24
18850;BME280;4989;48.772;9.154;2023-08-31T13:42:06;97784.94;;;29.46;36.12
18850;BME280;4989;48.772;9.154;2023-08-31T13:47:09;97772.63;;;23.72;47.99
18850;BME280;4989;48.772;9.154;2023-08-31T13:52:12;97778.44;;;22.63;50.52
18850;BME280;4989;48.772;9.154;2023-08-31T13:57:15;97778.56;;;22.18;50.45
18850;BME280;4989;48.772;9.154;2023-08-31T14:02:22;97770.00;;;21.82;54.94
18850;BME280;4989;48.772;9.154;2023-08-31T14:07:25;97774.50;;;21.40;54.38
18850;BME280;4989;48.772;9.154;2023-08-31T14:12:27;97769.97;;;21.37;58.46
18850;BME280;4989;48.772;9.154;2023-08-31T14:17:30;97781.94;;;21.17;57.02
18850;BME280;4989;48.772;9.154;2023-08-31T14:22:34;97779.59;;;20.93;56.84
18850;BME280;4989;48.772;9.154;2023-08-31T14:27:36;97769.16;;;21.31;63.34
18850;BME280;4989;48.772;9.154;2023-08-31T14:32:41;97769.00;;;21.85;62.36
18850;BME280;4989;48.772;9.154;2023-08-31T14:37:44;97771.66;;;21.29;56.95
18850;BME280;4989;48.772;9.154;2023-08-31T14:42:51;97771.66;;;20.52;60.02
18850;BME280;4989;48.772;9.154;2023-08-31T14:47:57;97779.75;;;20.24;62.41
18850;BME280;4989;48.772;9.154;2023-08-31T14:52:59;97784.94;;;21.14;60.04
18850;BME280;4989;48.772;9.154;2023-08-31T14:58:05;97784.06;;;21.56;58.65
18850;BME280;4989;48.772;9.154;2023-08-31T15:03:08;97778.78;;;21.53;64.48
18850;BME280;4989;48.772;9.154;2023-08-31T15:08:11;97784.59;;;21.88;64.56
18850;BME280;4989;48.772;9.154;2023-08-31T15:13:14;97784.59;;;22.22;64.45
18850;BME280;4989;48.772;9.154;2023-08-31T15:18:17;97785.34;;;21.94;65.60
18850;BME280;4989;48.772;9.154;2023-08-31T15:23:20;97789.81;;;21.36;58.61
18850;BME280;4989;48.772;9.154;2023-08-31T15:28:25;97803.19;;;21.60;56.63
18850;BME280;4989;48.772;9.154;2023-08-31T15:33:27;97792.16;;;21.82;59.53
18850;BME280;4989;48.772;9.154;2023-08-31T15:38:30;97796.63;;;21.40;57.85
18850;BME280;4989;48.772;9.154;2023-08-31T15:43:34;97788.59;;;21.99;67.66
18850;BME280;4989;48.772;9.154;2023-08-31T15:48:38;97797.44;;;22.31;66.30
18850;BME280;4989;48.772;9.154;2023-08-31T15:53:40;97801.41;;;22.52;64.31
18850;BME280;4989;48.772;9.154;2023-08-31T15:58:43;97787.38;;;22.16;58.26
18850;BME280;4989;48.772;9.154;2023-08-31T16:03:46;97791.88;;;21.91;65.30
18850;BME280;4989;48.772;9.154;2023-08-31T16:08:49;97787.34;;;21.66;58.65
18850;BME280;4989;48.772;9.154;2023-08-31T16:13:54;97795.16;;;20.85;60.59
18850;BME280;4989;48.772;9.154;2023-08-31T16:18:57;97804.47;;;20.93;62.84
18850;BME280;4989;48.772;9.154;2023-08-31T16:24:00;97795.88;;;21.62;69.97
18850;BME280;4989;48.772;9.154;2023-08-31T16:29:05;97800.16;;;22.14;68.16
18850;BME280;4989;48.772;9.154;2023-08-31T16:34:07;97804.47;;;22.32;66.42
18850;BME280;4989;48.772;9.154;2023-08-31T16:39:10;97812.97;;;22.56;65.52
18850;BME280;4989;48.772;9.154;2023-08-31T16:44:13;97802.88;;;22.70;63.26
18850;BME280;4989;48.772;9.154;2023-08-31T16:49:15;97811.63;;;21.28;61.33
18850;BME280;4989;48.772;9.154;2023-08-31T16:54:18;97805.81;;;20.55;64.84
18850;BME280;4989;48.772;9.154;2023-08-31T16:59:21;97805.53;;;20.16;66.05
18850;BME280;4989;48.772;9.154;2023-08-31T17:04:25;97810.47;;;20.86;71.02
18850;BME280;4989;48.772;9.154;2023-08-31T17:09:32;97804.59;;;21.27;67.80
18850;BME280;4989;48.772;9.154;2023-08-31T17:14:34;97801.25;;;21.00;64.86
18850;BME280;4989;48.772;9.154;2023-08-31T17:19:38;97803.09;;;19.92;67.90
18850;BME280;4989;48.772;9.154;2023-08-31T17:24:40;97793.03;;;19.62;69.42
18850;BME280;4989;48.772;9.154;2023-08-31T17:29:43;97790.44;;;19.53;70.74
18850;BME280;4989;48.772;9.154;2023-08-31T17:34:45;97794.31;;;19.41;70.83
18850;BME280;4989;48.772;9.154;2023-08-31T17:39:48;97792.38;;;19.47;71.63
18850;BME280;4989;48.772;9.154;2023-08-31T17:44:51;97790.25;;;19.36;72.89
18850;BME280;4989;48.772;9.154;2023-08-31T17:49:55;97788.69;;;19.30;70.78
18850;BME280;4989;48.772;9.154;2023-08-31T17:54:58;97795.28;;;19.38;72.51
18850;BME280;4989;48.772;9.154;2023-08-31T18:00:02;97798.97;;;19.81;70.25
18850;BME280;4989;48.772;9.154;2023-08-31T18:05:10;97801.59;;;19.96;71.39
18850;BME280;4989;48.772;9.154;2023-08-31T18:10:15;97797.16;;;20.04;73.71
18850;BME280;4989;48.772;9.154;2023-08-31T18:15:18;97806.06;;;20.20;74.35
18850;BME280;4989;48.772;9.154;2023-08-31T18:20:27;97804.88;;;20.32;70.33
18850;BME280;4989;48.772;9.154;2023-08-31T18:25:29;97802.69;;;20.04;74.18
18850;BME280;4989;48.772;9.154;2023-08-31T18:30:32;97805.56;;;20.58;72.53
18850;BME280;4989;48.772;9.154;2023-08-31T18:35:35;97823.56;;;20.91;75.66
18850;BME280;4989;48.772;9.154;2023-08-31T18:40:38;97828.03;;;21.37;75.79
18850;BME280;4989;48.772;9.154;2023-08-31T18:45:48;97837.66;;;21.64;73.21
18850;BME280;4989;48.772;9.154;2023-08-31T18:50:57;97842.13;;;21.50;70.68
18850;BME280;4989;48.772;9.154;2023-08-31T18:56:01;97853.97;;;21.45;74.79
18850;BME280;4989;48.772;9.154;2023-08-31T19:01:06;97856.53;;;21.77;73.86
18850;BME280;4989;48.772;9.154;2023-08-31T19:06:09;97864.59;;;21.69;72.95
18850;BME280;4989;48.772;9.154;2023-08-31T19:11:14;97865.31;;;21.64;73.42
18850;BME280;4989;48.772;9.154;2023-08-31T19:16:17;97874.41;;;21.82;74.83
18850;BME280;4989;48.772;9.154;2023-08-31T19:21:20;97877.16;;;21.87;72.17
18850;BME280;4989;48.772;9.154;2023-08-31T19:26:25;97889.22;;;21.73;73.55
18850;BME280;4989;48.772;9.154;2023-08-31T19:31:27;97907.38;;;21.85;73.76
18850;BME280;4989;48.772;9.154;2023-08-31T19:36:32;97901.41;;;22.32;70.50
18850;BME280;4989;48.772;9.154;2023-08-31T19:41:35;97894.09;;;22.29;69.09
18850;BME280;4989;48.772;9.154;2023-08-31T19:46:37;97885.53;;;22.44;68.93
18850;BME280;4989;48.772;9.154;2023-08-31T19:51:40;97882.38;;;20.97;66.85
18850;BME280;4989;48.772;9.154;2023-08-31T19:56:43;97881.25;;;19.83;76.34
18850;BME280;4989;48.772;9.154;2023-08-31T20:01:48;97874.25;;;19.87;73.36
18850;BME280;4989;48.772;9.154;2023-08-31T20:06:50;97869.94;;;19.81;75.01
18850;BME280;4989;48.772;9.154;2023-08-31T20:11:54;97869.50;;;20.46;74.91
18850;BME280;4989;48.772;9.154;2023-08-31T20:16:56;97878.34;;;20.24;72.12
18850;BME280;4989;48.772;9.154;2023-08-31T20:21:59;97883.59;;;19.70;73.48
18850;BME280;4989;48.772;9.154;2023-08-31T20:27:01;97886.09;;;18.86;78.44
18850;BME280;4989;48.772;9.154;2023-08-31T20:32:07;97887.78;;;18.48;82.30
18850;BME280;4989;48.772;9.154;2023-08-31T20:37:10;97900.50;;;18.30;84.34
18850;BME280;4989;48.772;9.154;2023-08-31T20:42:14;97899.75;;;18.15;87.13
18850;BME280;4989;48.772;9.154;2023-08-31T20:47:17;97891.78;;;19.38;80.68
18850;BME280;4989;48.772;9.154;2023-08-31T20:52:22;97897.38;;;19.90;86.06
18850;BME280;4989;48.772;9.154;2023-08-31T20:57:25;97891.56;;;20.77;79.25
18850;BME280;4989;48.772;9.154;2023-08-31T21:02:28;97897.38;;;19.90;79.16
18850;BME280;4989;48.772;9.154;2023-08-31T21:07:30;97896.72;;;20.01;80.30
18850;BME280;4989;48.772;9.154;2023-08-31T21:12:33;97889.47;;;19.77;85.19
18850;BME280;4989;48.772;9.154;2023-08-31T21:17:36;97877.28;;;20.16;79.35
18850;BME280;4989;48.772;9.154;2023-08-31T21:22:40;97882.59;;;19.93;81.34
18850;BME280;4989;48.772;9.154;2023-08-31T21:27:42;97888.50;;;20.06;86.19
18850;BME280;4989;48.772;9.154;2023-08-31T21:32:45;97888.72;;;20.61;78.96
18850;BME280;4989;48.772;9.154;2023-08-31T21:37:48;97890.97;;;20.36;81.93
18850;BME280;4989;48.772;9.154;2023-08-31T21:42:51;97882.34;;;20.23;84.61
18850;BME280;4989;48.772;9.154;2023-08-31T21:47:54;97871.94;;;19.80;85.69
18850;BME280;4989;48.772;9.154;2023-08-31T21:52:58;97874.78;;;20.18;87.00
18850;BME280;4989;48.772;9.154;2023-08-31T21:58:01;97878.44;;;19.77;86.44
18850;BME280;4989;48.772;9.154;2023-08-31T22:03:05;97885.47;;;20.04;85.25
18850;BME280;4989;48.772;9.154;2023-08-31T22:08:10;97879.59;;;20.23;86.49
18850;BME280;4989;48.772;9.154;2023-08-31T22:13:14;97876.44;;;19.78;85.29
18850;BME280;4989;48.772;9.154;2023-08-31T22:18:18;97876.47;;;19.37;86.78
18850;BME280;4989;48.772;9.154;2023-08-31T22:23:21;97866.56;;;19.25;88.21
18850;BME280;4989;48.772;9.154;2023-08-31T22:28:23;97868.50;;;18.48;96.23
18850;BME280;4989;48.772;9.154;2023-08-31T22:33:27;97864.97;;;18.62;97.12
18850;BME280;4989;48.772;9.154;2023-08-31T22:38:30;97868.03;;;18.49;97.09
18850;BME280;4989;48.772;9.154;2023-08-31T22:43:33;97867.03;;;18.67;95.86
18850;BME280;4989;48.772;9.154;2023-08-31T22:48:43;97852.31;;;18.70;94.99
18850;BME280;4989;48.772;9.154;2023-08-31T22:53:46;97848.53;;;18.68;91.96
18850;BME280;4989;48.772;9.154;2023-08-31T22:58:49;97856.22;;;18.99;89.97
18850;BME280;4989;48.772;9.154;2023-08-31T23:03:52;97850.31;;;18.86;87.33
18850;BME280;4989;48.772;9.154;2023-08-31T23:08:54;97842.28;;;18.17;92.23
18850;BME280;4989;48.772;9.154;2023-08-31T23:13:57;97840.78;;;17.87;92.75
18850;BME280;4989;48.772;9.154;2023-08-31T23:18:59;97832.41;;;18.11;92.05
18850;BME280;4989;48.772;9.154;2023-08-31T23:24:01;97835.56;;;18.03;90.84
18850;BME280;4989;48.772;9.154;2023-08-31T23:29:04;97835.69;;;18.29;89.25
18850;BME280;4989;48.772;9.154;2023-08-31T23:34:08;97836.56;;;17.61;93.28
18850;BME280;4989;48.772;9.154;2023-08-31T23:39:11;97824.63;;;17.50;95.59
18850;BME280;4989;48.772;9.154;2023-08-31T23:44:13;97820.19;;;17.13;100.00
18850;BME280;4989;48.772;9.154;2023-08-31T23:49:15;97801.59;;;17.08;100.00
18850;BME280;4989;48.772;9.154;2023-08-31T23:54:17;97792.31;;;17.06;100.00
18850;BME280;4989;48.772;9.154;2023-08-31T23:59:20;97803.91;;;17.10;100.00
